KBDU

Boulder Municipal Airport

Boulder, Colorado, USA
METAR KBDU 171036Z AUTO 00000KT 10SM CLR M08/M10 A3021 RMK AO2
Observed Flight Rules
Jan-17 @ 10:36 UTC (25 minutes ago) Visual Flight Rules
Wind Visibility Clouds
Calm 10 miles
  • Clear skies
Temperatures Readings
Current -8°C / 18°F
Dewpoint -10°C / 14°F
Humidity 86%
Altimeter 30.21" Hg
Pressure 1023 hPa
Elevation 1612
METAR KBDU 171036Z AUTO 00000KT 10SM CLR M08/M10 A3021 RMK AO2
Observed Flight Rules
Jan-17 @ 10:36 UTC
(25 minutes ago)
VFR
Wind Visibility
Calm 10 miles
Clouds
  • Clear skies
Temperature Dewpoint
-8°C / 18°F -10°C / 14°F
Humidity Altimeter Pressure
86% 30.21" Hg 1023 hPa